Disclaimer

Please do not use the information listed here in-flight or in-navigation, as they are not provided to us by the airports but are provided by volunteers, so they might be outdated.

Search


Regions


Airport information page

Radio informations:
MUMBAI TWR - 118.1 MHz
RDR - 119.3 MHz
MUMBAI RDO - 10084 MHz
MUMBAI GND - 121.9 MHz
MUMBAI ATIS - 126.4 MHz
MUMBAI APP - 127.9 MHz

Airport informations:
Latitude: 19° 05' 19.27" N
Longitude: 072° 52' 04.51" E
Elevation: 37 feet - 11 meters
Operating hours: 24 hour operations
Operating agency: Civil government, landing fees and diplomatic clearance may be required
Timezone: UTC+5:30
Fuel: Jet A1, without icing nhibitor.

100/130 MIL Spec, low lead, aviation gasoline (BLUE)

Runway information:
09/27 - 11302 x 148 feet< - >3445 x 45 meters
14/32 - 9596 x 150 feet< - >2925 x 46 meters

Recent METARs:
VABB 180630Z 33006KT 2500 FU NSC 32/18 Q1012 NOSIG
VABB 180730Z 28007KT 2200 FU NSC 32/20 Q1011 NOSIG
VABB 180800Z 27008KT 2200 FU NSC 32/20 Q1010 NOSIG

Airport on the map: